EST,Max TemperatureF,Mean TemperatureF,Min TemperatureF,Max Dew PointF,MeanDew PointF,Min DewpointF,Max Humidity, Mean Humidity, Min Humidity, Max Sea Level PressureIn, Mean Sea Level PressureIn, Min Sea Level PressureIn, Max VisibilityMiles, Mean VisibilityMiles, Min VisibilityMiles, Max Wind SpeedMPH, Mean Wind SpeedMPH, Max Gust SpeedMPH,PrecipitationIn, CloudCover, Events, WindDirDegrees
2013-1-1,50,48,46,46,43,38,95,80,65,30.12,30.02,29.95,10,10,5,13,6,,0.04,6,,254
2013-1-2,46,44,41,46,39,32,97,85,68,30.20,30.06,29.95,10,9,4,16,8,24,0.31,5,,22
2013-1-3,43,38,32,32,30,27,90,66,57,30.24,30.20,30.16,10,10,10,13,7,17,0.00,4,,24
2013-1-4,48,39,30,37,32,29,95,69,47,30.27,30.22,30.16,10,10,10,12,4,17,0.00,0,,287
2013-1-5,50,42,36,36,31,26,91,68,51,30.39,30.31,30.23,10,10,10,9,5,17,0.00,0,,345
2013-1-6,50,44,38,43,39,36,94,81,64,30.27,30.16,30.08,10,10,10,9,3,,0.01,7,,256
2013-1-7,50,42,34,42,36,33,95,74,54,30.46,30.34,30.13,10,10,10,17,7,25,0.00,0,,11
2013-1-8,60,48,36,50,44,34,96,81,64,30.48,30.42,30.37,10,10,10,17,6,16,0.00,2,,75
2013-1-9,65,54,44,54,50,44,98,85,65,30.44,30.38,30.34,10,10,7,7,1,,0.00,1,,236
2013-1-10,57,48,39,53,42,36,95,74,54,30.55,30.48,30.39,10,10,10,17,6,24,0.00,0,,26
2013-1-11,67,52,38,58,51,38,98,86,63,30.49,30.30,30.14,10,9,0,13,6,17,0.00,3,Fog,138
2013-1-12,61,56,51,60,57,51,99,97,88,30.18,30.15,30.12,10,4,0,7,3,,0.00,8,Fog,317
2013-1-13,67,57,48,62,54,48,99,95,83,30.18,30.14,30.10,10,6,0,12,3,,0.00,4,Fog,170
2013-1-14,75,64,55,61,58,54,98,88,60,30.19,30.15,30.12,10,10,2,13,7,,0.00,0,,192
2013-1-15,58,53,48,58,50,48,98,95,90,30.21,30.18,30.09,10,8,2,20,9,25,0.01,8,,23
2013-1-16,61,54,48,61,53,47,99,94,84,30.08,30.02,29.99,10,8,0,14,6,20,0.04,8,Fog,144
2013-1-17,53,48,43,53,48,42,98,96,92,30.05,29.99,29.84,10,5,1,31,9,43,0.40,8,Rain,38
2013-1-18,46,40,33,41,32,25,95,72,47,30.55,30.35,29.95,10,10,4,25,16,39,0.08,2,Rain,8
2013-1-19,56,43,30,46,38,28,92,77,50,30.51,30.36,30.17,10,10,10,10,4,,0.00,0,,234
2013-1-20,63,54,46,45,41,36,89,66,37,30.16,30.05,29.94,10,10,10,17,7,22,0.00,0,,247
2013-1-21,59,50,42,46,41,36,86,69,52,30.08,29.98,29.85,10,10,10,14,6,21,0.00,0,,116
2013-1-22,49,40,30,36,16,3,78,42,26,30.28,30.12,29.91,10,10,10,16,10,23,0.00,0,,334
2013-1-23,38,32,28,22,9,1,56,37,30,30.37,30.27,30.13,10,10,10,13,7,18,0.00,0,,307
2013-1-24,43,36,28,34,20,9,76,57,41,30.51,30.23,29.93,10,10,10,31,14,43,0.00,5,,326
2013-1-25,34,30,27,32,23,10,98,76,48,30.51,30.33,30.09,10,8,2,13,6,18,0.03,5,Snow,340
2013-1-26,39,34,29,33,30,27,98,90,75,30.41,30.23,30.10,10,10,5,10,5,,0.26,4,,336
2013-1-27,41,34,28,30,25,21,92,67,46,30.58,30.52,30.41,10,10,10,15,8,22,0.00,1,,17
2013-1-28,53,40,29,51,38,27,97,87,71,30.53,30.38,30.21,10,10,10,15,3,,0.00,5,Rain,216
2013-1-29,67,58,50,53,50,48,97,83,57,30.21,30.16,30.13,10,9,5,13,8,16,0.00,1,,237
2013-1-30,66,59,52,59,55,52,99,91,76,30.14,29.93,29.62,10,6,0,25,13,32,0.00,5,Fog,190
2013-1-31,63,53,43,61,40,26,95,62,34,30.02,29.74,29.44,10,9,2,40,21,48,0.36,3,Rain,267